Time;durP1;ratioP1;P1;durP2;ratioP2;P2;SDS_P1;SDS_P2;PMS_P1;PMS_P2;Temp;Humidity;BMP_temperature;BMP_pressure;BME280_temperature;BME280_humidity;BME280_pressure;Samples;Min_cycle;Max_cycle;Signal;HPM_P1;HPM_P2
2023/09/14 00:01:10;;;;;;;;;;;16.50;99.90;;;;;;5082945;28;20221;-73
2023/09/14 00:03:36;;;;;;;;;;;16.50;99.90;;;;;;5083222;28;19928;-74
2023/09/14 00:06:03;;;;;;;;;;;16.40;99.90;;;;;;5082681;28;20112;-72
2023/09/14 00:08:30;;;;;;;;;;;16.30;99.90;;;;;;5079457;28;20018;-73
2023/09/14 00:10:59;;;;;;;;;;;16.30;99.90;;;;;;5084569;28;19920;-71
2023/09/14 00:13:26;;;;;;;;;;;16.30;99.90;;;;;;5079898;28;20261;-72
2023/09/14 00:15:52;;;;;;;;;;;16.30;99.90;;;;;;5077472;28;19929;-73
2023/09/14 00:18:19;;;;;;;;;;;16.30;99.90;;;;;;5079045;28;20281;-73
2023/09/14 00:20:46;;;;;;;;;;;16.30;99.90;;;;;;5080273;28;19952;-73
2023/09/14 00:23:12;;;;;;;;;;;16.30;99.90;;;;;;5085095;28;19983;-73
2023/09/14 00:25:39;;;;;;;;;;;16.30;99.90;;;;;;5082784;28;19927;-73
2023/09/14 00:28:07;;;;;;;;;;;16.20;99.90;;;;;;5084441;28;20252;-72
2023/09/14 00:30:34;;;;;;;;;;;16.30;99.90;;;;;;5086490;28;19964;-73
2023/09/14 00:33:00;;;;;;;;;;;16.30;99.90;;;;;;5089992;28;19956;-73
2023/09/14 00:35:27;;;;;;;;;;;16.30;99.90;;;;;;5085969;28;19984;-73
2023/09/14 00:37:54;;;;;;;;;;;16.30;99.90;;;;;;5088003;28;19927;-71
2023/09/14 00:40:21;;;;;;;;;;;16.20;99.90;;;;;;5086220;28;20281;-72
2023/09/14 00:42:48;;;;;;;;;;;16.20;99.90;;;;;;5086397;28;19927;-72
2023/09/14 00:45:16;;;;;;;;;;;16.20;99.90;;;;;;5085792;28;19984;-72
2023/09/14 00:47:44;;;;;;;;;;;16.20;99.90;;;;;;5082996;28;20233;-73
2023/09/14 00:50:15;;;;;;;;;;;16.20;99.90;;;;;;5085964;28;19991;-73
2023/09/14 00:52:42;;;;;;;;;;;16.20;99.90;;;;;;5085817;28;19927;-72
2023/09/14 00:55:09;;;;;;;;;;;16.20;99.90;;;;;;5085682;28;19962;-72
2023/09/14 00:57:36;;;;;;;;;;;16.30;99.90;;;;;;5091253;28;19928;-73
2023/09/14 01:00:06;;;;;;;;;;;16.20;99.90;;;;;;5081851;28;19963;-72
2023/09/14 01:02:34;;;;;;;;;;;16.20;99.90;;;;;;5083845;28;19988;-73
2023/09/14 01:05:01;;;;;;;;;;;16.20;99.90;;;;;;5085030;28;19920;-72
2023/09/14 01:07:27;;;;;;;;;;;16.20;99.90;;;;;;5081421;28;19956;-73
2023/09/14 01:09:54;;;;;;;;;;;16.30;99.90;;;;;;5082387;28;19921;-73
2023/09/14 01:12:20;;;;;;;;;;;16.30;99.90;;;;;;5082361;28;19927;-72
2023/09/14 01:14:53;;;;;;;;;;;16.30;99.90;;;;;;5076474;28;19984;-72
2023/09/14 01:17:24;;;;;;;;;;;16.30;99.90;;;;;;5088923;28;19987;-72
2023/09/14 01:19:57;;;;;;;;;;;16.30;99.90;;;;;;5088837;28;19959;-71
2023/09/14 01:22:32;;;;;;;;;;;16.30;99.90;;;;;;5085658;28;19988;-73
2023/09/14 01:25:03;;;;;;;;;;;16.30;99.90;;;;;;5085559;28;19978;-73
2023/09/14 01:27:31;;;;;;;;;;;16.40;99.90;;;;;;5083643;28;19921;-73
2023/09/14 01:29:59;;;;;;;;;;;16.40;99.90;;;;;;5085547;28;19967;-72
2023/09/14 01:32:26;;;;;;;;;;;16.40;99.90;;;;;;5088145;28;19932;-71
2023/09/14 01:34:53;;;;;;;;;;;16.30;99.90;;;;;;5086445;28;19920;-73
2023/09/14 01:37:21;;;;;;;;;;;16.40;99.90;;;;;;5085466;28;19921;-72
2023/09/14 01:39:48;;;;;;;;;;;16.40;99.90;;;;;;5084935;28;19983;-73
2023/09/14 01:42:14;;;;;;;;;;;16.40;99.90;;;;;;5085095;28;19920;-73
2023/09/14 01:44:43;;;;;;;;;;;16.40;99.90;;;;;;5085008;28;19927;-71
2023/09/14 01:47:09;;;;;;;;;;;16.40;99.90;;;;;;5085072;28;19987;-73
2023/09/14 01:49:36;;;;;;;;;;;16.40;99.90;;;;;;5084821;28;19920;-73
2023/09/14 01:52:03;;;;;;;;;;;16.40;99.90;;;;;;5084873;28;19983;-72
2023/09/14 01:54:29;;;;;;;;;;;16.40;99.90;;;;;;5086750;28;19955;-73
2023/09/14 01:56:56;;;;;;;;;;;16.40;99.90;;;;;;5086557;28;20213;-73
2023/09/14 01:59:23;;;;;;;;;;;16.30;99.90;;;;;;5084952;28;19983;-72
2023/09/14 02:01:51;;;;;;;;;;;16.30;99.90;;;;;;5085074;28;19921;-73
2023/09/14 02:04:17;;;;;;;;;;;16.30;99.90;;;;;;5084642;28;19955;-73
2023/09/14 02:06:44;;;;;;;;;;;16.30;99.90;;;;;;5081740;28;19920;-73
2023/09/14 02:09:10;;;;;;;;;;;16.30;99.90;;;;;;5084601;28;19956;-73
2023/09/14 02:11:37;;;;;;;;;;;16.30;99.90;;;;;;5084282;28;20209;-73
2023/09/14 02:14:04;;;;;;;;;;;16.20;99.90;;;;;;5084303;28;19927;-73
2023/09/14 02:16:30;;;;;;;;;;;16.30;99.90;;;;;;5083255;28;19952;-73
2023/09/14 02:18:58;;;;;;;;;;;16.30;99.90;;;;;;5083044;28;19921;-73
2023/09/14 02:21:25;;;;;;;;;;;16.20;99.90;;;;;;5084316;28;19996;-73
2023/09/14 02:23:51;;;;;;;;;;;16.20;99.90;;;;;;5084455;28;19921;-73
2023/09/14 02:26:18;;;;;;;;;;;16.20;99.90;;;;;;5084237;28;20099;-73
2023/09/14 02:28:44;;;;;;;;;;;16.20;99.90;;;;;;5085174;28;19920;-71
2023/09/14 02:31:11;;;;;;;;;;;16.10;99.90;;;;;;5087920;28;20232;-73
2023/09/14 02:33:38;;;;;;;;;;;16.10;99.90;;;;;;5084294;28;19962;-73
2023/09/14 02:36:06;;;;;;;;;;;16.10;99.90;;;;;;5087079;28;19952;-73
2023/09/14 02:38:33;;;;;;;;;;;16.00;99.90;;;;;;5082504;28;19951;-73
2023/09/14 02:40:59;;;;;;;;;;;16.00;99.90;;;;;;5083991;28;19956;-73
2023/09/14 02:43:26;;;;;;;;;;;16.00;99.90;;;;;;5087350;28;19927;-73
2023/09/14 02:45:52;;;;;;;;;;;16.00;99.90;;;;;;5086075;28;19984;-73
2023/09/14 02:48:19;;;;;;;;;;;16.00;99.90;;;;;;5084080;28;19921;-73
2023/09/14 02:50:45;;;;;;;;;;;16.00;99.90;;;;;;5079387;28;19988;-72
2023/09/14 02:53:13;;;;;;;;;;;16.00;99.90;;;;;;5084045;28;20108;-73
2023/09/14 02:55:40;;;;;;;;;;;16.00;99.90;;;;;;5083278;28;20193;-73
2023/09/14 02:58:08;;;;;;;;;;;16.00;99.90;;;;;;5080571;28;19951;-73
2023/09/14 03:00:34;;;;;;;;;;;16.00;99.90;;;;;;5083819;28;19921;-73
2023/09/14 03:03:02;;;;;;;;;;;15.90;99.90;;;;;;5083873;28;19968;-73
2023/09/14 03:05:29;;;;;;;;;;;15.90;99.90;;;;;;5083218;28;20229;-73
2023/09/14 03:07:56;;;;;;;;;;;15.80;99.90;;;;;;5082906;28;19935;-73
2023/09/14 03:10:24;;;;;;;;;;;15.80;99.90;;;;;;5079800;28;19929;-72
2023/09/14 03:12:50;;;;;;;;;;;15.80;99.90;;;;;;5078551;28;19959;-73
2023/09/14 03:15:17;;;;;;;;;;;15.80;99.90;;;;;;5085337;28;20178;-73
2023/09/14 03:17:43;;;;;;;;;;;15.80;99.90;;;;;;5079178;28;20277;-73
2023/09/14 03:20:11;;;;;;;;;;;15.80;99.90;;;;;;5080492;28;19921;-72
2023/09/14 03:22:37;;;;;;;;;;;15.80;99.90;;;;;;5074783;28;19929;-73
2023/09/14 03:25:04;;;;;;;;;;;15.80;99.90;;;;;;5077146;28;19927;-73
2023/09/14 03:27:32;;;;;;;;;;;15.80;99.90;;;;;;5081106;28;19920;-73
2023/09/14 03:29:59;;;;;;;;;;;15.80;99.90;;;;;;5083068;28;19963;-73
2023/09/14 03:32:25;;;;;;;;;;;15.80;99.90;;;;;;5083162;28;19960;-73
2023/09/14 03:34:52;;;;;;;;;;;15.80;99.90;;;;;;5083042;28;19928;-72
2023/09/14 03:37:19;;;;;;;;;;;15.80;99.90;;;;;;5083388;28;20160;-73
2023/09/14 03:39:46;;;;;;;;;;;15.70;99.90;;;;;;5080549;28;19984;-73
2023/09/14 03:42:12;;;;;;;;;;;15.70;99.90;;;;;;5083415;28;19962;-72
2023/09/14 03:44:40;;;;;;;;;;;15.60;99.90;;;;;;5082212;28;19921;-73
2023/09/14 03:47:07;;;;;;;;;;;15.60;99.90;;;;;;5083304;28;19979;-72
2023/09/14 03:49:34;;;;;;;;;;;15.60;99.90;;;;;;5083326;28;19959;-72
2023/09/14 03:52:00;;;;;;;;;;;15.60;99.90;;;;;;5084493;28;19920;-73
2023/09/14 03:54:27;;;;;;;;;;;15.50;99.90;;;;;;5087273;28;19928;-73
2023/09/14 03:56:53;;;;;;;;;;;15.60;99.90;;;;;;5084976;28;19976;-72
2023/09/14 03:59:20;;;;;;;;;;;15.60;99.90;;;;;;5081863;28;19959;-73
2023/09/14 04:01:48;;;;;;;;;;;15.60;99.90;;;;;;5075870;28;19927;-73
2023/09/14 04:04:15;;;;;;;;;;;15.50;99.90;;;;;;5086287;28;19983;-73
2023/09/14 04:06:41;;;;;;;;;;;15.50;99.90;;;;;;5087116;28;19984;-72
2023/09/14 04:09:08;;;;;;;;;;;15.40;99.90;;;;;;5087020;28;19920;-72
2023/09/14 04:11:35;;;;;;;;;;;15.40;99.90;;;;;;5084997;28;19970;-73
2023/09/14 04:14:02;;;;;;;;;;;15.40;99.90;;;;;;5085851;28;19935;-73
2023/09/14 04:16:30;;;;;;;;;;;15.40;99.90;;;;;;5086840;28;19927;-73
2023/09/14 04:19:00;;;;;;;;;;;15.50;99.90;;;;;;5086811;28;19928;-73
2023/09/14 04:21:27;;;;;;;;;;;15.50;99.90;;;;;;5082607;28;19991;-73
2023/09/14 04:23:54;;;;;;;;;;;15.50;99.90;;;;;;5079433;28;19921;-72
2023/09/14 04:26:20;;;;;;;;;;;15.40;99.90;;;;;;5086621;28;20109;-73
2023/09/14 04:28:47;;;;;;;;;;;15.50;99.90;;;;;;5086690;28;19983;-73
2023/09/14 04:31:13;;;;;;;;;;;15.40;99.90;;;;;;5086643;28;19987;-73
2023/09/14 04:33:41;;;;;;;;;;;15.40;99.90;;;;;;5085783;28;19920;-74
2023/09/14 04:36:09;;;;;;;;;;;15.40;99.90;;;;;;5083012;28;20117;-72
2023/09/14 04:38:35;;;;;;;;;;;15.30;99.90;;;;;;5086453;28;19963;-72
2023/09/14 04:41:03;;;;;;;;;;;15.30;99.90;;;;;;5086543;28;19985;-72
2023/09/14 04:43:32;;;;;;;;;;;15.30;99.90;;;;;;5085910;28;20360;-72
2023/09/14 04:45:59;;;;;;;;;;;15.20;99.90;;;;;;5089153;28;20209;-73
2023/09/14 04:48:26;;;;;;;;;;;15.20;99.90;;;;;;5085804;28;19989;-72
2023/09/14 04:50:55;;;;;;;;;;;15.20;99.90;;;;;;5086206;28;19929;-71
2023/09/14 04:53:23;;;;;;;;;;;15.20;99.90;;;;;;5086209;28;19974;-72
2023/09/14 04:55:50;;;;;;;;;;;15.20;99.90;;;;;;5085658;28;20170;-73
2023/09/14 04:58:16;;;;;;;;;;;15.20;99.90;;;;;;5088470;28;19920;-72
2023/09/14 05:00:43;;;;;;;;;;;15.20;99.90;;;;;;5085921;28;20199;-72
2023/09/14 05:03:10;;;;;;;;;;;15.20;99.90;;;;;;5086183;28;19992;-72
2023/09/14 05:05:36;;;;;;;;;;;15.20;99.90;;;;;;5086061;28;19920;-72
2023/09/14 05:08:03;;;;;;;;;;;15.20;99.90;;;;;;5085735;28;20205;-74
2023/09/14 05:10:31;;;;;;;;;;;15.20;99.90;;;;;;5085931;28;19964;-72
2023/09/14 05:12:58;;;;;;;;;;;15.30;99.90;;;;;;5080442;28;19987;-73
2023/09/14 05:15:24;;;;;;;;;;;15.20;99.90;;;;;;5085532;28;19920;-73
2023/09/14 05:17:51;;;;;;;;;;;15.30;99.90;;;;;;5084453;28;19943;-73
2023/09/14 05:20:18;;;;;;;;;;;15.30;99.90;;;;;;5080139;28;19920;-74
2023/09/14 05:22:44;;;;;;;;;;;15.30;99.90;;;;;;5091514;28;19977;-72
2023/09/14 05:25:11;;;;;;;;;;;15.30;99.90;;;;;;5084895;28;19920;-72
2023/09/14 05:27:40;;;;;;;;;;;15.30;99.90;;;;;;5085627;28;19984;-72
2023/09/14 05:30:08;;;;;;;;;;;15.30;99.90;;;;;;5085449;28;19928;-73
2023/09/14 05:32:35;;;;;;;;;;;15.20;99.90;;;;;;5083889;28;20164;-72
2023/09/14 05:35:02;;;;;;;;;;;15.20;99.90;;;;;;5085467;28;19967;-70
2023/09/14 05:37:28;;;;;;;;;;;15.20;99.90;;;;;;5085100;28;19991;-70
2023/09/14 05:39:55;;;;;;;;;;;15.20;99.90;;;;;;5088506;28;20003;-72
2023/09/14 05:42:23;;;;;;;;;;;15.20;99.90;;;;;;5087715;28;20299;-72
2023/09/14 05:44:51;;;;;;;;;;;15.20;99.90;;;;;;5079515;28;19920;-72
2023/09/14 05:47:17;;;;;;;;;;;15.10;99.90;;;;;;5085248;28;19962;-72
2023/09/14 05:49:45;;;;;;;;;;;15.10;99.90;;;;;;5085290;28;19975;-72
2023/09/14 05:52:11;;;;;;;;;;;15.10;99.90;;;;;;5084912;28;19991;-72
2023/09/14 05:54:39;;;;;;;;;;;15.10;99.90;;;;;;5084962;28;19952;-72
2023/09/14 05:57:06;;;;;;;;;;;15.10;99.90;;;;;;5085253;28;19966;-72
2023/09/14 05:59:32;;;;;;;;;;;15.10;99.90;;;;;;5084771;28;20210;-72
2023/09/14 06:02:00;;;;;;;;;;;15.00;99.90;;;;;;5084998;28;19928;-72
2023/09/14 06:04:27;;;;;;;;;;;15.00;99.90;;;;;;5084701;28;19988;-72
2023/09/14 06:06:53;;;;;;;;;;;15.00;99.90;;;;;;5082781;28;19955;-72
2023/09/14 06:09:20;;;;;;;;;;;15.00;99.90;;;;;;5081021;28;19924;-72
2023/09/14 06:11:47;;;;;;;;;;;14.90;99.90;;;;;;5082039;28;19927;-72
2023/09/14 06:14:13;;;;;;;;;;;14.90;99.90;;;;;;5085570;28;19980;-72
2023/09/14 06:16:40;;;;;;;;;;;14.90;99.90;;;;;;5079767;28;19966;-72
2023/09/14 06:19:08;;;;;;;;;;;14.80;99.90;;;;;;5078644;28;19956;-72
2023/09/14 06:21:34;;;;;;;;;;;14.80;99.90;;;;;;5082279;28;19958;-71
2023/09/14 06:24:01;;;;;;;;;;;14.70;99.90;;;;;;5081488;28;19983;-71
2023/09/14 06:26:28;;;;;;;;;;;14.60;99.90;;;;;;5081111;28;19921;-72
2023/09/14 06:28:55;;;;;;;;;;;14.50;99.90;;;;;;5080147;28;19944;-72
2023/09/14 06:31:22;;;;;;;;;;;14.60;99.90;;;;;;5076133;28;19927;-72
2023/09/14 06:33:49;;;;;;;;;;;14.50;99.90;;;;;;5072104;28;19959;-72
2023/09/14 06:36:18;;;;;;;;;;;14.50;99.90;;;;;;5081450;28;19943;-72
2023/09/14 06:38:45;;;;;;;;;;;14.50;99.90;;;;;;5081984;28;19954;-72
2023/09/14 06:41:12;;;;;;;;;;;14.50;99.90;;;;;;5086470;28;20149;-72
2023/09/14 06:43:39;;;;;;;;;;;14.60;99.90;;;;;;5075908;28;19927;-72
2023/09/14 06:46:05;;;;;;;;;;;14.50;99.90;;;;;;5078435;28;19992;-72
2023/09/14 06:48:32;;;;;;;;;;;14.60;99.90;;;;;;5076946;28;19959;-72
2023/09/14 06:50:59;;;;;;;;;;;14.60;99.90;;;;;;5080583;28;20106;-72
2023/09/14 06:53:26;;;;;;;;;;;14.60;99.90;;;;;;5083802;28;19935;-72
2023/09/14 06:55:53;;;;;;;;;;;14.70;99.90;;;;;;5077072;28;19952;-72
2023/09/14 06:58:20;;;;;;;;;;;14.70;99.90;;;;;;5078761;28;19988;-72
2023/09/14 07:00:46;;;;;;;;;;;14.70;99.90;;;;;;5083682;28;19988;-72
2023/09/14 07:03:13;;;;;;;;;;;14.80;99.90;;;;;;5078890;28;19921;-72
2023/09/14 07:05:39;;;;;;;;;;;14.90;99.90;;;;;;5083746;28;19948;-72
2023/09/14 07:08:06;;;;;;;;;;;14.90;99.90;;;;;;5083566;28;20168;-72
2023/09/14 07:10:35;;;;;;;;;;;15.00;99.90;;;;;;5083763;28;19920;-72
2023/09/14 07:13:02;;;;;;;;;;;15.00;99.90;;;;;;5080766;28;19982;-72
2023/09/14 07:15:29;;;;;;;;;;;15.10;99.90;;;;;;5083331;28;20224;-72
2023/09/14 07:17:55;;;;;;;;;;;15.10;99.90;;;;;;5083247;28;19920;-73
2023/09/14 07:20:22;;;;;;;;;;;15.20;99.90;;;;;;5085610;28;20248;-72
2023/09/14 07:22:48;;;;;;;;;;;15.20;99.90;;;;;;5089527;28;19920;-72
2023/09/14 07:25:15;;;;;;;;;;;15.20;99.90;;;;;;5083511;28;19927;-72
2023/09/14 07:27:44;;;;;;;;;;;15.30;99.90;;;;;;5083466;28;20340;-72
2023/09/14 07:30:12;;;;;;;;;;;15.30;99.90;;;;;;5082725;28;19920;-72
2023/09/14 07:32:39;;;;;;;;;;;15.40;99.90;;;;;;5083032;28;19935;-72
2023/09/14 07:35:06;;;;;;;;;;;15.40;99.90;;;;;;5081239;28;19920;-72
2023/09/14 07:37:33;;;;;;;;;;;15.40;99.90;;;;;;5081338;28;20019;-72
2023/09/14 07:40:00;;;;;;;;;;;15.40;99.90;;;;;;5082885;28;20328;-72
2023/09/14 07:42:26;;;;;;;;;;;15.40;99.90;;;;;;5080744;28;19921;-72
2023/09/14 07:44:54;;;;;;;;;;;15.40;99.90;;;;;;5093775;22;19929;-69
2023/09/14 07:47:24;;;;;;;;;;;15.50;99.90;;;;;;5072152;28;19988;-68
2023/09/14 07:49:51;;;;;;;;;;;15.60;99.90;;;;;;5068707;28;19921;-71
2023/09/14 07:52:17;;;;;;;;;;;15.70;99.90;;;;;;5071978;28;20170;-70
2023/09/14 07:54:44;;;;;;;;;;;15.60;99.90;;;;;;5071753;28;19927;-71
2023/09/14 07:57:10;;;;;;;;;;;15.80;99.90;;;;;;5072164;28;19920;-71
2023/09/14 07:59:37;;;;;;;;;;;15.70;99.90;;;;;;5069198;28;19988;-71
2023/09/14 08:02:07;;;;;;;;;;;15.70;99.90;;;;;;5069332;28;19920;-70
2023/09/14 08:04:34;;;;;;;;;;;15.80;99.90;;;;;;5066215;28;19921;-70
2023/09/14 08:07:00;;;;;;;;;;;15.70;99.90;;;;;;5074842;28;19920;-70
2023/09/14 08:09:27;;;;;;;;;;;15.80;99.90;;;;;;5066264;28;19951;-70
2023/09/14 08:11:54;;;;;;;;;;;15.70;99.90;;;;;;5071535;28;19921;-70
2023/09/14 08:14:21;;;;;;;;;;;15.80;99.90;;;;;;5069827;28;19921;-69
2023/09/14 08:16:47;;;;;;;;;;;15.80;99.90;;;;;;5070557;28;19921;-70
2023/09/14 08:19:15;;;;;;;;;;;15.80;99.90;;;;;;5074282;28;19920;-70
2023/09/14 08:21:42;;;;;;;;;;;15.80;99.90;;;;;;5068797;28;19992;-70
2023/09/14 08:24:08;;;;;;;;;;;15.80;99.90;;;;;;5069554;28;19959;-70
2023/09/14 08:26:35;;;;;;;;;;;15.90;99.90;;;;;;5074231;28;20209;-70
2023/09/14 08:29:02;;;;;;;;;;;16.00;99.90;;;;;;5075232;28;19935;-70
2023/09/14 08:31:28;;;;;;;;;;;16.00;99.90;;;;;;5069228;28;20214;-70
2023/09/14 08:33:55;;;;;;;;;;;16.10;99.90;;;;;;5065952;28;19920;-70
2023/09/14 08:36:23;;;;;;;;;;;16.20;99.90;;;;;;5071030;28;19920;-70
2023/09/14 08:38:49;;;;;;;;;;;16.30;99.90;;;;;;5077522;28;19959;-70
2023/09/14 08:41:21;;;;;;;;;;;16.40;99.90;;;;;;5069999;28;20113;-70
2023/09/14 08:43:48;;;;;;;;;;;16.40;99.90;;;;;;5070375;28;19983;-71
2023/09/14 08:46:16;;;;;;;;;;;16.50;99.90;;;;;;5074231;28;19983;-70
2023/09/14 08:48:45;;;;;;;;;;;16.50;99.90;;;;;;5077583;28;19958;-70
2023/09/14 08:51:12;;;;;;;;;;;16.50;99.90;;;;;;5075149;28;19920;-70
2023/09/14 08:53:40;;;;;;;;;;;16.60;99.90;;;;;;5072834;28;19927;-70
2023/09/14 08:56:07;;;;;;;;;;;16.60;99.90;;;;;;5072379;28;19963;-70
2023/09/14 08:58:34;;;;;;;;;;;16.60;99.90;;;;;;5072292;28;19996;-70
2023/09/14 09:01:02;;;;;;;;;;;16.70;99.90;;;;;;5072133;28;20172;-70
2023/09/14 09:03:29;;;;;;;;;;;16.70;99.90;;;;;;5075346;28;19960;-70
2023/09/14 09:05:55;;;;;;;;;;;16.80;99.90;;;;;;5073932;28;19927;-71
2023/09/14 09:08:25;;;;;;;;;;;16.80;99.90;;;;;;5077215;28;19980;-70
2023/09/14 09:10:53;;;;;;;;;;;16.80;99.90;;;;;;5076949;28;19921;-70
2023/09/14 09:13:19;;;;;;;;;;;16.90;99.90;;;;;;5077059;28;19920;-70
2023/09/14 09:15:47;;;;;;;;;;;16.90;99.90;;;;;;5074880;28;19927;-70
2023/09/14 09:18:13;;;;;;;;;;;17.00;99.90;;;;;;5071834;28;20268;-71
2023/09/14 09:20:41;;;;;;;;;;;17.20;99.90;;;;;;5069999;28;19992;-69
2023/09/14 09:23:08;;;;;;;;;;;17.20;99.90;;;;;;5072283;28;19921;-70
2023/09/14 09:25:44;;;;;;;;;;;17.30;99.90;;;;;;5073758;28;19988;-69
2023/09/14 09:28:12;;;;;;;;;;;17.30;99.90;;;;;;5071318;28;19979;-71
2023/09/14 09:30:39;;;;;;;;;;;17.30;99.90;;;;;;5079809;28;20160;-70
2023/09/14 09:33:05;;;;;;;;;;;17.40;99.90;;;;;;5072652;28;19921;-71
2023/09/14 09:35:34;;;;;;;;;;;17.30;99.90;;;;;;5071800;28;20121;-70
2023/09/14 09:38:01;;;;;;;;;;;17.40;99.90;;;;;;5074719;28;20205;-73
2023/09/14 09:40:28;;;;;;;;;;;17.50;99.90;;;;;;5072216;28;19959;-71
2023/09/14 09:42:56;;;;;;;;;;;17.50;99.90;;;;;;5073451;28;19963;-69
2023/09/14 09:45:24;;;;;;;;;;;17.60;99.90;;;;;;5073469;28;20300;-69
2023/09/14 09:47:50;;;;;;;;;;;17.60;99.90;;;;;;5075065;28;19927;-69
2023/09/14 09:50:20;;;;;;;;;;;17.70;99.90;;;;;;5073613;28;19987;-69
2023/09/14 09:52:47;;;;;;;;;;;17.80;99.90;;;;;;5064684;28;20206;-70
2023/09/14 09:55:17;;;;;;;;;;;17.90;99.90;;;;;;5067541;28;19935;-69
2023/09/14 09:57:50;;;;;;;;;;;17.90;99.90;;;;;;5072782;28;19979;-69
2023/09/14 10:00:19;;;;;;;;;;;18.00;99.90;;;;;;5070841;28;20201;-69
2023/09/14 10:02:47;;;;;;;;;;;18.10;99.90;;;;;;5071412;28;19928;-69
2023/09/14 10:05:14;;;;;;;;;;;18.20;99.90;;;;;;5070936;28;19935;-69
2023/09/14 10:07:41;;;;;;;;;;;18.40;99.90;;;;;;5071969;28;19924;-69
2023/09/14 10:10:09;;;;;;;;;;;18.50;99.90;;;;;;5068437;28;19989;-69
2023/09/14 10:12:38;;;;;;;;;;;18.60;99.90;;;;;;5073782;28;20114;-68
2023/09/14 10:15:05;;;;;;;;;;;18.70;99.90;;;;;;5073982;28;19966;-68
2023/09/14 10:17:33;;;;;;;;;;;18.80;99.90;;;;;;5068107;28;20289;-68
2023/09/14 10:20:03;;;;;;;;;;;18.90;99.90;;;;;;5070956;28;20210;-69
2023/09/14 10:22:30;;;;;;;;;;;18.90;99.90;;;;;;5079114;28;19927;-69
2023/09/14 10:24:57;;;;;;;;;;;19.00;99.90;;;;;;5073930;28;19924;-69
2023/09/14 10:27:24;;;;;;;;;;;19.10;99.90;;;;;;5069049;28;20137;-69
2023/09/14 10:29:52;;;;;;;;;;;19.30;99.90;;;;;;5072030;28;19932;-68
2023/09/14 10:32:20;;;;;;;;;;;19.40;99.90;;;;;;5074393;28;19926;-68
2023/09/14 10:34:47;;;;;;;;;;;19.60;99.90;;;;;;5071751;28;20214;-68
2023/09/14 10:37:15;;;;;;;;;;;19.70;99.90;;;;;;5070962;28;19952;-68
2023/09/14 10:39:43;;;;;;;;;;;19.90;99.90;;;;;;5075608;28;19955;-69
2023/09/14 10:42:10;;;;;;;;;;;20.10;99.90;;;;;;5073514;28;19996;-69
2023/09/14 10:44:36;;;;;;;;;;;20.30;99.90;;;;;;5069890;28;20236;-68
2023/09/14 10:47:04;;;;;;;;;;;20.50;99.90;;;;;;5067246;28;19988;-69
2023/09/14 10:49:32;;;;;;;;;;;20.70;99.90;;;;;;5073355;28;20272;-69
2023/09/14 10:51:59;;;;;;;;;;;20.80;99.90;;;;;;5072444;28;19963;-67
2023/09/14 10:54:28;;;;;;;;;;;20.80;99.90;;;;;;5070934;28;19968;-68
2023/09/14 10:56:55;;;;;;;;;;;20.70;99.90;;;;;;5070327;28;19956;-68
2023/09/14 10:59:22;;;;;;;;;;;20.50;99.90;;;;;;5078173;28;19962;-68
2023/09/14 11:01:50;;;;;;;;;;;20.20;99.90;;;;;;5070808;28;19964;-68
2023/09/14 11:04:18;;;;;;;;;;;20.20;99.90;;;;;;5068246;28;19928;-68
2023/09/14 11:06:46;;;;;;;;;;;20.00;99.90;;;;;;5072025;28;20361;-69
2023/09/14 11:09:14;;;;;;;;;;;20.00;99.90;;;;;;5073387;28;19920;-68
2023/09/14 11:11:43;;;;;;;;;;;19.90;99.90;;;;;;5071538;28;19926;-69
2023/09/14 11:14:10;;;;;;;;;;;19.80;99.90;;;;;;5067345;28;19927;-69
2023/09/14 11:16:41;;;;;;;;;;;19.90;99.90;;;;;;5072037;28;19925;-68
2023/09/14 11:19:08;;;;;;;;;;;20.20;99.90;;;;;;5066910;28;20008;-68
2023/09/14 11:21:42;;;;;;;;;;;20.30;99.90;;;;;;5073309;28;19929;-68
2023/09/14 11:24:09;;;;;;;;;;;20.30;99.90;;;;;;5067027;28;20329;-68
2023/09/14 11:26:37;;;;;;;;;;;20.20;99.90;;;;;;5071586;28;19960;-68
2023/09/14 11:29:06;;;;;;;;;;;19.90;99.90;;;;;;5072320;28;19927;-69
2023/09/14 11:31:33;;;;;;;;;;;19.60;99.90;;;;;;5076032;28;19955;-68
2023/09/14 11:34:05;;;;;;;;;;;19.60;99.90;;;;;;5071537;28;20289;-69
2023/09/14 11:36:32;;;;;;;;;;;19.60;99.90;;;;;;5076771;28;19987;-69
2023/09/14 11:38:59;;;;;;;;;;;19.60;99.90;;;;;;5073709;28;19920;-69
2023/09/14 11:41:56;;;;;;;;;;;19.60;99.90;;;;;;5072313;28;19988;-69
2023/09/14 11:44:27;;;;;;;;;;;19.70;99.90;;;;;;5071189;28;19921;-68
2023/09/14 11:46:55;;;;;;;;;;;19.80;99.90;;;;;;5071563;28;19920;-69
2023/09/14 11:49:23;;;;;;;;;;;19.80;99.90;;;;;;5070029;28;19928;-69
2023/09/14 11:51:52;;;;;;;;;;;19.90;99.90;;;;;;5067224;28;19944;-69
2023/09/14 11:54:19;;;;;;;;;;;19.90;99.90;;;;;;5067679;28;19924;-69
2023/09/14 11:56:46;;;;;;;;;;;19.90;99.90;;;;;;5062768;28;19983;-69
2023/09/14 11:59:13;;;;;;;;;;;20.00;99.90;;;;;;5062936;28;19924;-69
2023/09/14 12:01:41;;;;;;;;;;;19.90;99.90;;;;;;5069922;28;19948;-68
2023/09/14 12:04:08;;;;;;;;;;;19.90;99.90;;;;;;5071491;28;19948;-69
2023/09/14 12:06:36;;;;;;;;;;;20.00;99.90;;;;;;5063921;28;19920;-68
2023/09/14 12:09:03;;;;;;;;;;;20.10;99.90;;;;;;5072883;28;19987;-69
2023/09/14 12:11:42;;;;;;;;;;;20.30;99.90;;;;;;5064734;28;19927;-69
2023/09/14 12:14:09;;;;;;;;;;;20.50;99.90;;;;;;5061607;28;19927;-69
2023/09/14 12:16:38;;;;;;;;;;;20.70;99.90;;;;;;5068843;28;19925;-69
2023/09/14 12:19:11;;;;;;;;;;;20.90;99.90;;;;;;5077157;28;19921;-69
2023/09/14 12:21:38;;;;;;;;;;;21.10;99.90;;;;;;5067454;28;20021;-69
2023/09/14 12:24:05;;;;;;;;;;;21.50;99.90;;;;;;5069822;28;19959;-70
2023/09/14 12:26:33;;;;;;;;;;;22.00;99.90;;;;;;5070023;28;19952;-69
2023/09/14 12:29:00;;;;;;;;;;;22.40;99.90;;;;;;5075818;28;19921;-69
2023/09/14 12:31:26;;;;;;;;;;;22.70;99.90;;;;;;5068220;28;19960;-69
2023/09/14 12:33:54;;;;;;;;;;;23.10;99.90;;;;;;5070482;28;19942;-69
2023/09/14 12:36:22;;;;;;;;;;;23.20;99.90;;;;;;5071688;28;20264;-70
2023/09/14 12:38:49;;;;;;;;;;;23.40;99.90;;;;;;5068026;28;20605;-69
2023/09/14 12:41:15;;;;;;;;;;;23.40;99.90;;;;;;5067280;28;19948;-69
2023/09/14 12:43:42;;;;;;;;;;;23.20;99.90;;;;;;5071938;28;19960;-70
2023/09/14 12:46:09;;;;;;;;;;;23.10;99.90;;;;;;5072763;28;19929;-69
2023/09/14 12:48:36;;;;;;;;;;;22.80;99.90;;;;;;5067063;28;19949;-69
2023/09/14 12:51:04;;;;;;;;;;;22.80;99.90;;;;;;5075471;28;19992;-69
2023/09/14 12:53:36;;;;;;;;;;;22.60;99.90;;;;;;5069265;28;19959;-70
2023/09/14 12:56:03;;;;;;;;;;;22.50;99.90;;;;;;5075060;28;20363;-68
2023/09/14 12:58:30;;;;;;;;;;;22.20;99.90;;;;;;5070392;28;19956;-69
2023/09/14 13:00:57;;;;;;;;;;;22.00;99.90;;;;;;5069249;28;19951;-69
2023/09/14 13:03:23;;;;;;;;;;;21.90;99.90;;;;;;5070631;28;19920;-69
2023/09/14 13:05:53;;;;;;;;;;;22.10;99.90;;;;;;5071036;28;19921;-69
2023/09/14 13:08:20;;;;;;;;;;;22.10;99.90;;;;;;5067372;28;19921;-69
2023/09/14 13:10:48;;;;;;;;;;;22.20;99.90;;;;;;5069618;28;19928;-69
2023/09/14 13:13:15;;;;;;;;;;;22.30;99.90;;;;;;5070848;28;20162;-69
2023/09/14 13:15:42;;;;;;;;;;;22.50;99.90;;;;;;5071674;28;19984;-69
2023/09/14 13:18:09;;;;;;;;;;;22.80;99.90;;;;;;5065643;28;19921;-69
2023/09/14 13:20:36;;;;;;;;;;;22.90;99.90;;;;;;5072160;28;20176;-69
2023/09/14 13:23:06;;;;;;;;;;;22.80;99.90;;;;;;5080321;28;19927;-69
2023/09/14 13:25:33;;;;;;;;;;;22.70;99.90;;;;;;5068041;28;19928;-69
2023/09/14 13:28:01;;;;;;;;;;;22.90;99.90;;;;;;5073556;28;20317;-69
2023/09/14 13:30:28;;;;;;;;;;;23.30;99.90;;;;;;5072053;28;19920;-69
2023/09/14 13:32:56;;;;;;;;;;;23.60;99.90;;;;;;5072375;28;19920;-69
2023/09/14 13:35:23;;;;;;;;;;;23.80;99.90;;;;;;5078078;28;19987;-69
2023/09/14 13:37:51;;;;;;;;;;;24.20;99.90;;;;;;5071863;28;19952;-69
2023/09/14 13:40:20;;;;;;;;;;;24.30;99.90;;;;;;5073787;28;19987;-68
2023/09/14 13:42:47;;;;;;;;;;;23.90;99.90;;;;;;5076750;28;20213;-69
2023/09/14 13:45:15;;;;;;;;;;;23.60;99.90;;;;;;5074370;28;19983;-70
2023/09/14 13:47:42;;;;;;;;;;;23.30;99.90;;;;;;5070171;28;19948;-70
2023/09/14 13:50:10;;;;;;;;;;;23.00;99.90;;;;;;5064034;28;20214;-69
2023/09/14 13:52:37;;;;;;;;;;;22.80;99.90;;;;;;5071810;28;19974;-69
2023/09/14 13:55:05;;;;;;;;;;;22.60;99.90;;;;;;5071855;28;19959;-69
2023/09/14 13:57:32;;;;;;;;;;;22.40;99.90;;;;;;5078351;28;20330;-69
2023/09/14 13:59:59;;;;;;;;;;;22.30;99.90;;;;;;5068180;28;19925;-69
2023/09/14 14:02:27;;;;;;;;;;;22.10;99.90;;;;;;5071628;28;19995;-69
2023/09/14 14:04:53;;;;;;;;;;;22.10;99.90;;;;;;5068380;28;19983;-69
2023/09/14 14:07:20;;;;;;;;;;;22.20;99.90;;;;;;5071991;28;19927;-69
2023/09/14 14:12:23;;;;;;;;;;;22.10;99.90;;;;;;5039416;28;19925;-74
2023/09/14 14:14:54;;;;;;;;;;;22.20;99.90;;;;;;5043005;28;19921;-74
2023/09/14 14:17:20;;;;;;;;;;;22.40;99.90;;;;;;5044703;28;19984;-76
2023/09/14 14:19:48;;;;;;;;;;;22.60;99.90;;;;;;5044910;28;19921;-74